Date,TemperatureHighF,TemperatureAvgF,TemperatureLowF,DewpointHighF,DewpointAvgF,DewpointLowF,HumidityHigh,HumidityAvg,HumidityLow,PressureMaxIn,PressureMinIn,WindSpeedMaxMPH,WindSpeedAvgMPH,GustSpeedMaxMPH,PrecipitationSumIn
2014-1-1,20.1,16.5,13.8,15.2,11.5,7.7,91,81,68,30.47,30.32,8,3,16,0.00
2014-1-2,14.5,12.0,2.5,12.4,9.8,0.0,100,91,89,30.34,29.94,6,4,14,0.00
2014-1-3,5.3,0.8,-3.1,2.5,-2.0,-6.0,89,87,87,30.54,29.97,11,4,20,0.00
2014-1-4,25.9,15.0,-1.3,14.3,7.1,-4.5,87,72,55,30.51,30.25,14,8,22,0.00
2014-1-5,45.5,30.7,18.9,45.0,23.6,11.6,98,75,58,30.29,29.61,19,5,30,0.24
2014-1-6,48.6,29.9,2.7,47.7,25.0,-7.4,98,82,60,29.83,29.38,18,11,32,0.13
2014-1-7,2.9,0.6,-3.4,-5.2,-8.7,-12.3,72,64,55,30.40,29.83,17,10,33,0.00
2014-1-8,17.3,10.3,1.0,9.6,2.6,-5.4,79,71,59,30.58,30.39,9,5,17,0.00
2014-1-9,24.2,19.1,14.8,15.8,13.2,9.6,90,78,66,30.74,30.54,10,4,19,0.00
2014-1-10,36.1,30.0,22.8,35.1,28.2,16.2,97,93,70,30.53,30.14,14,7,22,0.05
2014-1-11,49.2,44.3,35.8,48.8,43.1,33.3,99,95,76,30.14,29.33,17,10,31,0.54
2014-1-12,39.3,33.5,30.2,33.1,29.5,26.2,92,85,78,30.06,29.47,14,6,25,0.00
2014-1-13,47.2,40.1,30.2,38.3,30.8,26.3,88,70,53,30.07,29.78,12,7,23,0.00
2014-1-14,43.9,39.4,32.0,42.0,37.9,31.0,98,94,81,29.89,29.73,9,3,17,0.27
2014-1-15,40.1,33.7,26.8,35.5,31.2,24.5,97,91,79,30.02,29.87,9,4,20,0.00
2014-1-16,31.5,27.4,24.9,24.5,22.5,19.8,91,82,71,30.05,29.91,6,1,9,0.01
2014-1-17,37.7,30.7,25.4,27.7,24.5,20.1,89,78,64,29.95,29.90,12,5,20,0.00
2014-1-18,30.0,23.6,17.7,27.4,21.6,14.8,100,92,88,29.94,29.81,8,3,16,0.00
2014-1-19,30.3,22.4,14.5,23.9,17.3,12.1,91,81,71,29.91,29.60,13,7,22,0.00
2014-1-20,30.6,23.6,10.7,29.0,19.6,7.3,95,85,78,30.03,29.58,9,6,19,0.00
2014-1-21,10.5,4.2,-5.6,7.2,0.0,-8.7,89,83,71,30.17,30.02,7,4,13,0.00
2014-1-22,3.2,-3.0,-9.5,-1.5,-6.6,-13.0,88,84,78,30.17,30.09,9,3,15,0.00
2014-1-23,12.1,5.2,-0.9,6.8,1.6,-3.8,89,85,70,30.39,30.15,7,3,15,0.00
2014-1-24,15.2,8.7,-0.3,3.4,0.5,-3.7,87,70,53,30.45,29.90,13,7,27,0.00
2014-1-25,24.1,18.2,9.7,19.5,9.7,0.4,93,70,50,29.90,29.38,13,9,26,0.00
2014-1-26,23.3,11.1,4.5,18.0,5.9,-2.0,88,80,62,29.87,29.62,13,7,25,0.00
2014-1-27,33.2,17.7,5.4,25.8,9.3,-3.1,94,69,56,30.17,29.49,17,9,32,0.00
2014-1-28,10.0,4.7,-1.0,2.2,-5.6,-8.6,88,62,49,30.43,30.17,9,4,18,0.00
2014-1-29,15.8,7.0,-2.1,3.3,-3.7,-10.7,81,61,48,30.37,30.16,13,5,21,0.00
2014-1-30,25.5,15.5,4.3,9.0,4.4,-2.2,83,62,47,30.47,30.06,15,6,23,0.00
2014-1-31,33.7,27.8,21.6,20.9,14.9,7.6,73,58,53,30.27,30.06,11,3,26,0.00
2014-2-1,39.7,33.5,26.5,29.1,24.2,19.7,83,69,53,30.31,29.97,16,6,28,0.00
2014-2-2,40.6,33.2,26.4,33.5,29.2,24.4,96,86,63,30.24,29.92,11,4,23,0.03
2014-2-3,26.6,22.6,15.0,24.6,19.0,11.8,92,86,78,30.43,30.21,6,2,12,0.00
2014-2-4,25.1,20.2,14.1,18.4,14.9,11.7,91,80,66,30.56,30.29,6,0,11,0.00
2014-2-5,25.1,21.7,13.9,23.9,19.7,12.0,95,92,76,30.34,29.74,11,4,19,0.00
2014-2-6,19.2,12.5,6.9,16.0,10.0,4.6,92,89,83,30.40,30.22,8,2,17,0.00
2014-2-7,22.4,15.0,8.0,12.1,8.0,2.6,91,75,51,30.38,30.28,9,3,16,0.00
2014-2-8,18.7,12.4,5.7,9.6,3.5,-2.0,82,67,58,30.42,30.27,5,2,9,0.00
2014-2-9,18.5,14.4,7.5,16.8,11.6,5.2,93,88,76,30.28,30.04,7,2,13,0.00
2014-2-10,19.8,14.9,9.5,14.8,11.2,4.9,92,85,70,30.37,30.11,10,4,17,0.00
2014-2-11,15.4,10.8,6.6,11.4,6.9,3.3,90,84,75,30.60,30.36,8,3,15,0.00
2014-2-12,22.8,12.2,-0.5,9.4,3.8,-3.0,91,71,45,30.61,30.33,13,5,20,0.00
2014-2-13,28.4,23.2,17.1,26.9,19.8,8.0,95,87,67,30.33,29.62,11,4,20,0.03
2014-2-14,27.7,27.2,26.4,22.9,22.5,22.0,84,83,81,29.82,29.77,5,3,20,0.01
2014-2-15,27.3,24.2,15.7,24.9,21.6,13.5,94,90,84,29.96,29.80,10,4,22,0.00
2014-2-16,16.4,13.6,10.6,13.4,11.0,8.1,92,89,81,30.29,29.96,9,5,20,0.00
2014-2-17,23.7,14.2,1.9,10.6,6.8,-0.7,92,74,50,30.55,30.21,15,3,24,0.00
2014-2-18,31.0,25.8,21.3,26.5,19.5,7.5,94,78,47,30.19,29.97,24,10,36,0.00
2014-2-19,39.5,33.5,24.7,37.1,29.7,20.3,95,86,71,30.15,29.70,18,6,25,0.08
2014-2-20,41.9,34.6,28.1,33.7,29.5,25.2,95,82,58,30.25,29.91,17,4,26,0.24
2014-2-21,45.6,40.8,36.5,44.2,34.6,24.4,97,79,58,29.91,29.65,20,9,31,0.49
2014-2-22,45.5,39.4,33.5,27.7,23.0,19.4,64,52,37,30.01,29.86,20,9,33,0.00
2014-2-23,44.1,36.8,24.8,31.2,26.1,16.0,81,66,41,30.03,29.90,9,6,19,0.00
2014-2-24,25.2,20.7,16.0,18.5,13.4,10.0,86,73,62,30.14,29.92,13,7,25,0.00
2014-2-25,18.8,16.4,14.4,13.0,11.2,9.6,90,80,70,30.13,29.99,13,5,21,0.00
2014-2-26,16.3,11.8,4.7,12.4,3.2,-3.1,89,68,51,30.05,29.86,14,5,25,0.00
2014-2-27,19.3,10.5,3.5,13.7,1.8,-5.8,89,68,56,30.16,29.65,19,9,32,0.00
2014-2-28,15.4,8.4,1.7,4.8,-0.1,-4.5,85,69,53,30.48,30.16,10,3,20,0.00
2014-3-1,33.0,22.9,11.6,22.7,8.4,-3.3,77,53,48,30.40,30.17,12,6,18,0.00
2014-3-2,28.6,17.2,9.6,23.9,13.3,3.8,92,85,75,30.26,30.17,8,5,15,0.00
2014-3-3,11.3,7.6,2.9,5.5,2.8,-2.2,92,80,68,30.48,30.22,10,4,16,0.00
2014-3-4,18.5,10.6,0.1,13.1,5.8,-3.3,88,81,53,30.49,30.32,6,1,11,0.00
2014-3-5,21.4,16.3,7.1,16.4,11.8,1.1,92,82,71,30.63,30.29,9,4,16,0.00
2014-3-6,28.3,15.9,1.2,7.6,3.2,-2.9,85,60,35,30.73,30.46,11,3,19,0.00
2014-3-7,40.9,29.2,17.2,27.9,19.2,3.2,79,66,47,30.46,30.00,14,6,23,0.00
2014-3-8,38.9,33.3,27.3,31.2,28.3,25.3,95,82,70,30.03,29.92,9,3,15,0.00
2014-3-9,31.1,25.8,20.5,26.0,19.5,17.0,94,77,58,30.16,29.92,8,4,20,0.00
2014-3-10,47.4,40.1,29.6,36.5,29.2,17.4,71,65,59,29.91,29.58,8,4,18,0.00
2014-3-11,51.8,45.5,39.5,37.4,35.9,33.9,85,70,54,29.76,29.58,9,2,15,0.00
2014-3-12,41.6,30.5,11.7,38.7,29.0,9.8,97,94,81,29.73,29.17,6,1,17,0.74
2014-3-13,14.0,10.2,6.6,11.0,7.4,4.3,92,88,84,30.19,29.58,13,3,26,0.00
2014-3-14,45.8,30.7,10.4,29.7,20.4,6.6,85,67,52,30.19,29.75,16,8,28,0.19
2014-3-15,43.0,36.7,23.2,37.4,29.7,14.9,89,76,56,30.14,29.70,13,8,29,0.03
2014-3-16,23.1,18.7,16.0,18.0,12.1,7.3,94,75,63,30.36,30.14,13,8,23,0.00
2014-3-17,28.8,23.5,15.5,10.3,6.9,3.4,67,49,37,30.24,30.14,4,2,9,0.00
2014-3-18,43.3,30.7,19.8,24.7,14.4,7.1,66,51,37,30.29,30.18,11,5,17,0.00
2014-3-19,39.9,35.5,31.8,35.7,23.1,10.3,95,63,38,30.25,29.80,19,13,30,0.03
2014-3-20,39.7,35.9,30.1,38.3,31.5,26.8,96,84,71,29.95,29.74,18,10,30,0.00
2014-3-21,35.3,29.8,26.5,27.1,23.6,19.6,88,78,69,30.13,29.95,9,4,19,0.00
2014-3-22,44.8,35.4,27.4,37.5,28.3,23.3,85,75,58,30.12,29.72,18,8,30,0.00
2014-3-23,31.1,25.8,19.9,26.4,20.1,14.0,88,79,69,30.21,30.07,10,6,19,0.00
2014-3-25,36.1,31.2,26.6,21.8,15.5,11.0,82,53,37,30.00,29.95,8,2,11,0.00
2014-3-26,26.4,19.5,16.3,22.8,13.2,7.0,92,77,59,30.34,29.99,15,9,28,0.00
2014-3-27,40.7,26.7,12.2,23.1,14.1,8.0,92,61,36,30.45,30.14,13,6,22,0.00
2014-3-28,52.8,42.4,35.3,45.5,36.1,22.3,94,79,54,30.19,29.86,14,9,25,0.29
2014-3-29,42.8,37.5,33.7,38.2,35.4,32.6,97,92,82,30.28,29.84,8,3,16,0.63
2014-3-30,37.7,32.0,29.7,36.7,31.0,28.8,98,96,91,30.02,29.80,14,9,26,0.36
2014-3-31,41.8,34.3,28.7,35.3,29.9,26.1,92,84,72,30.28,30.02,15,8,25,0.01
2014-4-1,56.6,44.3,29.0,38.7,33.0,26.2,91,66,46,30.26,29.96,14,4,21,0.00
2014-4-2,55.6,45.1,36.2,38.7,35.2,30.9,85,69,50,30.21,30.00,7,3,17,0.00
2014-4-3,45.6,37.1,27.9,32.4,29.3,25.3,92,74,57,30.26,30.09,5,2,9,0.00
2014-4-4,43.4,40.7,37.6,41.0,37.7,30.3,100,89,73,30.10,29.67,21,11,31,0.18
2014-4-5,42.3,35.9,31.1,41.2,31.1,26.0,96,83,70,30.19,29.71,14,7,0,0.04
2014-4-6,51.6,38.6,27.4,29.0,25.1,18.6,89,62,27,30.30,30.19,4,2,0,0.00
2014-4-7,45.4,39.3,36.5,41.4,30.2,25.0,94,71,48,30.22,29.58,16,4,27,0.37
2014-4-8,51.3,44.5,39.8,48.1,41.7,36.3,97,90,76,29.74,29.38,16,8,31,0.29
2014-4-9,39.9,37.9,36.4,37.5,36.3,35.1,96,94,91,29.74,29.72,5,2,8,0.00
2014-4-10,65.3,52.5,33.8,38.2,32.9,21.2,68,49,33,30.13,29.86,17,9,30,0.00
2014-4-11,58.3,49.8,41.8,50.0,44.4,37.0,96,83,45,30.09,29.88,8,2,18,0.18
2014-4-12,66.6,50.9,35.4,46.3,39.8,34.6,98,71,36,30.27,30.09,7,2,15,0.01
2014-4-13,78.9,66.5,55.2,54.8,49.2,37.6,71,54,42,30.13,29.84,13,8,25,0.00
2014-4-14,74.2,66.5,58.3,57.9,55.6,52.7,95,69,53,29.86,29.63,19,10,32,0.37
2014-4-15,59.9,42.4,24.5,57.9,40.6,22.8,96,93,87,30.09,29.48,14,8,26,0.59
2014-4-16,35.6,27.2,21.5,24.2,20.3,17.9,94,77,53,30.66,30.09,12,5,26,0.07
2014-4-17,51.3,38.0,25.6,28.5,22.8,18.1,76,56,33,30.74,30.56,15,7,24,0.00
2014-4-18,56.4,44.5,33.5,40.8,33.3,26.3,80,65,49,30.58,30.24,12,8,22,0.00
2014-4-19,50.7,42.9,35.5,41.4,34.5,29.7,91,73,47,30.47,30.29,8,4,16,0.00
2014-4-20,66.1,49.6,31.9,35.5,31.1,26.6,86,54,23,30.52,30.26,8,3,16,0.00
2014-4-21,72.3,58.3,44.0,40.7,35.3,31.4,66,45,24,30.26,29.80,7,4,13,0.00
2014-4-22,60.9,54.2,42.0,55.1,44.9,35.4,93,74,39,29.80,29.53,11,4,23,0.17
2014-4-23,42.0,37.8,35.4,38.2,35.3,27.7,96,91,73,30.00,29.63,11,6,22,0.22
2014-4-24,48.3,39.8,32.4,28.2,25.3,22.1,77,57,39,30.15,30.01,14,6,25,0.00
2014-4-25,61.9,47.1,33.0,44.5,30.2,22.5,94,55,28,30.11,29.72,17,6,25,0.17
2014-4-26,55.6,45.1,40.8,45.2,40.8,37.5,96,85,66,29.99,29.72,13,5,23,0.06
2014-4-27,46.1,41.6,37.3,39.6,37.1,35.3,95,85,69,30.25,29.99,9,5,17,0.08
2014-4-28,58.9,47.8,34.7,39.5,35.8,31.1,90,65,42,30.25,30.06,6,2,11,0.00
2014-4-29,51.4,45.4,40.5,42.1,39.5,36.6,94,81,57,30.32,30.06,26,13,37,0.35
2014-4-30,50.1,45.3,40.0,48.2,43.2,38.1,95,92,89,30.32,29.89,21,12,33,0.14
2014-5-1,62.8,53.9,45.5,56.2,50.1,40.6,98,87,73,29.90,29.75,12,4,23,0.24
2014-5-2,55.8,48.5,43.8,45.6,42.3,40.1,90,79,60,29.89,29.75,13,2,22,0.01
2014-5-3,56.0,49.8,44.6,47.9,44.1,41.9,95,81,66,29.87,29.72,13,3,26,0.31
2014-5-4,53.7,46.7,41.5,43.4,38.2,34.3,93,73,50,29.95,29.74,13,8,29,0.02
2014-5-5,56.0,46.8,38.4,39.6,35.0,29.9,93,66,41,30.05,29.95,9,5,19,0.02
2014-5-6,55.7,49.1,43.8,41.8,35.4,31.0,78,60,45,30.17,29.96,11,3,20,0.00
2014-5-7,65.8,52.6,37.3,38.7,34.5,26.4,83,54,28,30.31,30.17,4,1,9,0.00
2014-5-8,75.5,62.3,49.7,58.8,51.6,38.2,91,69,52,30.18,30.03,6,2,9,0.02
2014-5-9,81.1,68.8,59.1,64.3,59.2,56.8,94,74,46,30.09,29.85,13,8,23,0.17
2014-5-10,75.0,65.2,55.6,61.6,54.4,35.8,97,71,41,29.94,29.79,16,6,24,0.17
2014-5-11,72.2,60.3,50.2,44.9,41.1,35.6,76,51,31,30.13,29.94,6,2,15,0.00
2014-5-12,81.0,67.8,53.7,61.8,51.7,40.0,81,58,41,30.13,30.03,6,1,11,0.00
2014-5-13,85.5,71.8,63.2,65.7,62.2,58.6,89,74,48,30.14,30.01,13,3,21,0.05
2014-5-14,80.7,66.9,54.3,64.6,57.1,48.0,86,72,54,30.18,30.06,16,8,24,0.00
2014-5-15,76.5,69.8,63.4,65.1,62.6,56.9,95,79,51,30.12,29.90,22,13,35,0.38
2014-5-16,66.0,53.8,45.0,63.1,51.9,43.9,98,93,82,29.99,29.78,11,5,19,1.30
2014-5-17,55.6,47.8,41.9,43.9,40.6,37.5,96,77,57,30.20,29.96,6,3,14,0.00
2014-5-18,58.0,48.5,41.1,43.9,39.0,33.6,95,72,42,30.32,30.21,7,2,16,0.03
2014-5-19,65.6,53.6,40.2,46.9,41.2,34.9,83,64,44,30.30,30.17,9,3,19,0.00
2014-5-20,70.0,60.7,47.9,49.6,44.8,38.4,86,58,33,30.21,30.04,5,1,11,0.00
2014-5-21,65.6,60.2,54.8,60.2,54.5,47.9,96,82,67,30.05,29.86,10,3,18,0.02
2014-5-22,75.0,63.2,55.0,62.4,57.5,49.9,99,83,53,29.91,29.77,10,3,17,0.02
2014-5-23,55.3,53.2,51.0,52.8,50.9,49.2,98,92,83,30.06,29.88,6,3,13,0.00
2014-5-24,69.1,57.7,51.9,56.3,52.4,49.7,99,84,57,30.16,30.05,7,4,15,0.01
2014-5-25,74.7,64.2,51.7,51.8,49.8,47.1,91,62,41,30.17,30.07,8,2,15,0.00
2014-5-26,82.0,71.1,61.0,57.4,52.4,46.5,62,52,40,30.07,29.91,10,3,22,0.00
2014-5-27,82.9,70.9,64.3,66.4,59.7,50.9,93,69,54,29.92,29.77,10,2,17,0.00
2014-5-28,68.0,58.8,53.6,65.8,56.3,51.5,100,92,79,30.14,29.79,8,4,14,0.00
2014-5-29,60.9,55.4,51.2,53.8,51.4,47.9,95,87,76,30.21,30.14,7,2,14,0.00
2014-5-30,71.2,60.1,47.8,56.5,51.8,47.0,98,76,50,30.19,30.11,11,4,22,0.00
2014-5-31,70.7,60.1,47.7,53.4,46.1,39.5,95,64,36,30.30,30.17,9,3,21,0.00
2014-6-1,76.6,64.1,50.5,53.0,49.4,45.3,84,61,42,30.36,30.18,9,3,20,0.00
2014-6-2,84.6,71.4,57.4,65.6,59.4,51.1,81,67,49,30.20,29.95,7,4,17,0.00
2014-6-3,80.7,72.9,64.1,69.6,66.0,56.0,93,80,62,29.97,29.76,11,3,17,0.07
2014-6-4,71.1,63.2,51.6,55.9,53.2,48.0,89,71,54,29.91,29.78,9,2,18,0.00
2014-6-5,65.6,58.4,52.5,53.9,50.7,48.3,87,76,61,29.90,29.74,8,3,14,0.00
2014-6-6,70.4,58.8,51.2,54.2,51.6,49.0,96,78,52,30.04,29.89,7,3,16,0.00
2014-6-7,78.8,65.5,52.6,56.3,52.8,49.2,92,66,41,30.09,29.96,5,1,14,0.00
2014-6-8,79.9,67.5,55.4,60.9,55.0,49.1,96,66,43,29.99,29.81,9,3,20,1.06
2014-6-9,65.3,63.1,61.7,64.0,62.2,60.8,99,97,95,29.98,29.85,4,0,9,0.58
2014-6-10,76.1,68.5,62.9,67.0,64.4,62.2,99,88,69,29.98,29.93,5,1,7,0.00
2014-6-11,67.9,63.9,60.8,65.7,62.4,58.8,97,95,90,30.01,29.95,15,6,25,0.17
2014-6-12,66.5,64.3,61.3,65.0,63.0,59.5,98,96,94,30.01,29.87,13,8,24,0.15
2014-6-13,81.3,68.3,62.1,70.3,65.2,60.4,99,91,62,29.87,29.69,10,4,20,0.62
2014-6-14,61.5,55.1,49.7,60.1,51.3,47.0,95,87,76,30.13,29.84,8,3,17,0.00
2014-6-15,72.7,61.1,53.2,57.8,53.6,50.4,95,78,46,30.24,30.12,5,2,11,0.00
2014-6-16,82.1,69.0,52.8,68.4,59.5,51.1,95,74,42,30.17,29.99,7,2,12,0.19
2014-6-17,85.2,74.2,63.8,70.0,66.1,62.3,96,78,51,30.08,29.77,11,3,23,1.05
2014-6-18,75.3,69.2,64.0,68.2,64.4,61.8,97,85,71,30.03,29.81,9,3,22,0.01
2014-6-19,73.3,66.7,54.9,64.6,55.6,42.2,97,71,38,30.12,29.98,8,3,16,0.07
2014-6-20,69.9,60.4,50.0,51.9,46.4,42.0,81,62,39,30.12,30.02,7,2,16,0.00
2014-6-21,74.2,61.9,48.1,53.2,49.0,45.3,92,65,44,30.05,29.94,5,1,12,0.00
2014-6-22,77.5,65.4,51.6,55.6,50.6,47.3,90,61,37,30.03,29.97,3,1,9,0.00
2014-6-23,79.8,68.8,57.0,64.5,58.6,50.8,83,71,56,30.09,30.00,8,3,17,0.00
2014-6-24,79.1,70.6,67.3,70.7,64.8,60.8,95,82,74,30.04,29.90,12,6,23,0.09
2014-6-25,71.2,68.6,66.1,70.3,67.6,65.1,99,97,92,29.92,29.84,6,2,13,1.39
2014-6-26,76.2,69.4,63.5,67.1,64.1,61.1,100,84,60,30.05,29.87,7,4,14,0.02
2014-6-27,81.9,71.0,59.6,65.5,58.8,54.2,98,69,39,30.19,30.05,4,1,9,0.01
2014-6-28,83.8,72.7,63.1,68.6,62.0,55.6,83,70,49,30.26,30.17,6,2,14,0.00
2014-6-29,83.4,72.3,65.6,70.0,64.0,60.5,84,76,64,30.20,30.09,7,3,13,0.00
2014-6-30,85.6,78.1,67.7,72.7,68.9,61.6,85,74,63,30.04,29.87,5,3,12,0.02
2014-7-1,87.0,77.3,70.1,74.8,70.5,67.7,93,80,62,29.89,29.71,12,6,22,0.00
2014-7-2,85.0,81.1,73.0,71.2,68.5,65.4,87,66,53,29.85,29.79,7,4,12,0.00
2014-7-3,76.6,70.2,64.8,68.3,66.9,64.2,98,90,74,29.96,29.93,3,0,6,0.01
2014-7-4,67.4,62.2,57.2,60.2,54.1,51.3,97,76,60,30.17,30.00,10,6,19,0.02
2014-7-5,76.9,65.1,53.5,56.7,53.5,50.8,93,69,44,30.25,30.12,7,3,17,0.00
2014-7-6,76.4,64.5,55.9,58.8,53.0,48.1,78,67,51,30.12,29.97,7,2,14,0.00
2014-7-7,76.6,71.1,65.7,72.4,67.0,60.1,95,87,75,29.79,29.67,8,4,18,0.38
2014-7-8,79.9,70.4,64.5,71.4,67.0,62.9,96,89,72,29.76,29.57,20,4,42,0.92
2014-7-9,77.4,67.5,59.1,65.2,61.6,56.0,91,82,56,30.02,29.69,9,4,15,0.03
2014-7-10,73.5,65.4,56.0,57.6,54.2,50.9,95,69,52,30.21,30.02,4,2,10,0.00
2014-7-11,78.9,68.4,53.5,59.7,55.8,50.5,92,66,47,30.28,30.19,5,1,11,0.00
2014-7-12,83.8,73.0,62.7,69.2,63.3,57.4,90,73,52,30.22,30.03,7,2,15,0.00
2014-7-13,75.4,71.3,68.7,72.2,68.5,64.9,96,91,79,30.03,29.77,9,4,22,0.47
2014-7-14,81.0,71.4,65.9,70.0,67.2,65.2,99,88,65,29.90,29.80,5,2,10,0.01
2014-7-15,77.2,68.9,64.1,69.0,65.4,55.6,97,89,74,29.80,29.70,6,3,15,0.10
2014-7-16,72.4,64.8,57.6,59.0,56.2,53.1,92,74,55,29.95,29.80,7,2,13,0.00
2014-7-17,69.4,62.3,54.8,58.7,56.2,51.9,93,81,62,30.16,29.96,7,1,15,0.00
2014-7-18,74.8,64.2,53.3,58.4,53.9,49.6,96,72,45,30.28,30.16,5,1,10,0.01
2014-7-19,75.5,67.0,58.3,62.5,58.2,54.7,89,74,53,30.26,30.16,8,2,14,0.00
2014-7-20,78.8,69.2,62.3,62.8,59.6,56.8,87,73,48,30.17,30.09,6,3,16,0.00
2014-7-21,82.0,72.2,63.6,68.3,64.6,59.4,88,77,58,30.18,30.11,6,2,12,0.00
2014-7-22,85.4,75.7,67.1,72.6,68.8,65.3,94,80,60,30.14,29.96,7,2,14,0.00
2014-7-23,84.2,72.5,62.7,72.9,68.5,61.2,96,88,67,29.98,29.78,12,5,23,0.33
2014-7-24,67.5,62.6,56.3,61.1,54.8,50.8,95,76,59,30.03,29.90,8,4,16,0.00
2014-7-25,75.5,63.5,52.1,58.8,54.4,49.4,92,74,53,30.10,29.99,4,1,9,0.00
2014-7-26,77.1,67.3,56.7,62.2,58.3,54.6,94,74,53,30.01,29.84,6,2,11,0.00
2014-7-27,83.2,73.4,66.7,68.6,64.1,61.0,89,74,49,29.84,29.61,10,4,18,0.00
2014-7-28,70.1,62.8,56.8,65.7,61.2,56.0,98,95,83,29.81,29.48,10,3,25,0.34
2014-7-29,66.4,59.7,55.3,57.6,55.4,52.3,97,86,67,30.02,29.81,6,2,11,0.00
2014-7-30,71.5,61.0,51.4,60.3,55.5,50.0,96,83,61,30.05,29.98,8,2,16,0.00
2014-7-31,72.6,64.2,55.2,64.5,60.0,53.8,98,87,70,30.14,30.04,8,2,16,0.30
2014-8-1,81.6,70.1,58.9,65.9,62.1,57.5,96,78,53,30.19,30.11,6,2,12,0.01
2014-8-2,78.0,68.2,63.7,66.1,63.0,61.1,94,84,63,30.17,30.05,5,1,13,0.00
2014-8-3,79.2,67.4,62.7,67.1,63.3,60.5,98,88,64,30.10,30.03,8,1,13,0.25
2014-8-4,79.3,69.0,61.1,66.7,63.1,60.1,100,83,54,30.12,30.05,4,1,11,0.01
2014-8-5,78.0,66.3,61.4,67.0,62.4,59.6,98,88,64,30.07,29.95,9,1,11,1.13
2014-8-6,72.2,65.1,58.2,64.9,59.0,52.5,99,82,52,29.99,29.94,8,3,15,0.01
2014-8-7,72.3,63.6,56.1,60.6,55.5,51.6,94,76,49,30.09,29.98,9,3,16,0.00
2014-8-8,73.5,63.9,54.2,61.5,57.1,52.6,97,80,61,30.17,30.09,6,2,13,0.00
2014-8-9,78.0,66.2,54.6,62.5,57.6,53.2,96,76,49,30.20,30.13,5,1,13,0.00
2014-8-10,82.2,69.8,56.4,64.8,59.2,54.4,94,72,45,30.19,30.10,4,1,11,0.00
2014-8-11,80.9,70.0,61.6,65.1,60.8,58.0,90,74,52,30.12,30.03,8,2,15,0.00
2014-8-12,66.8,64.9,62.8,65.3,63.3,61.6,97,95,90,29.93,29.80,15,9,26,1.00
2014-8-13,73.0,65.5,57.2,66.0,61.9,54.9,99,89,67,29.86,29.74,10,4,21,0.63
2014-8-14,68.8,58.6,50.8,54.8,51.4,47.8,94,78,53,29.93,29.84,8,3,20,0.01
2014-8-15,64.2,56.2,52.3,54.7,50.9,49.3,93,83,65,29.97,29.90,8,3,20,0.00
2014-8-16,69.5,66.4,58.8,58.2,55.8,51.1,80,69,62,30.00,29.93,9,4,15,0.00
2014-8-17,69.8,64.3,57.1,60.6,58.1,55.0,95,81,70,29.98,29.92,7,4,14,0.00
2014-8-18,70.8,61.6,55.6,57.5,55.6,53.9,97,82,59,29.99,29.90,5,2,11,0.00
2014-8-19,76.5,65.0,50.1,66.7,59.3,49.0,97,83,63,29.94,29.87,6,1,13,0.01
2014-8-20,75.7,68.0,64.3,70.1,65.8,62.5,98,93,81,29.97,29.90,7,2,14,0.57
2014-8-21,74.9,70.3,65.8,70.3,67.3,64.0,97,90,81,29.99,29.94,9,1,18,1.01
2014-8-22,77.0,67.6,63.1,69.5,65.7,62.5,100,94,73,30.02,29.96,7,1,15,1.55
2014-8-23,66.3,63.8,60.8,63.3,61.6,59.9,97,93,86,30.16,30.06,6,2,12,0.01
2014-8-24,77.8,66.8,58.0,64.2,60.0,57.2,98,81,52,30.22,30.14,4,0,8,0.00
2014-8-25,79.6,68.9,57.6,64.0,59.8,56.2,96,75,50,30.24,30.13,5,1,9,0.01
2014-8-26,82.0,69.2,59.1,63.0,58.5,55.1,89,71,43,30.18,30.06,8,3,17,0.00
2014-8-27,76.7,69.1,59.1,69.7,64.0,56.7,94,84,71,30.01,29.95,7,2,14,0.00
2014-8-28,66.5,60.3,56.2,58.5,54.7,50.3,96,82,60,30.15,29.98,9,3,20,0.00
2014-8-29,73.4,62.0,50.0,59.2,54.0,48.6,97,77,52,30.25,30.14,4,1,10,0.00
2014-8-30,74.7,63.5,58.0,66.8,58.3,54.2,89,84,74,30.21,30.11,11,5,17,0.00
2014-8-31,73.1,70.6,68.7,71.9,69.2,65.7,98,96,90,30.05,29.95,8,2,14,0.39
2014-9-1,81.1,72.1,64.0,71.8,68.5,63.4,99,89,71,30.02,29.87,6,2,13,0.01
2014-9-2,82.8,72.5,64.1,71.9,68.3,63.3,98,87,65,29.90,29.74,11,3,24,0.35
2014-9-3,77.0,68.0,62.3,64.2,61.3,58.3,98,81,55,30.12,29.88,5,2,11,0.00
2014-9-4,81.8,72.1,61.1,69.1,64.5,57.8,91,78,59,30.17,30.08,7,2,14,0.00
2014-9-5,85.4,75.8,67.0,72.9,69.3,65.6,96,81,61,30.14,29.93,10,4,17,0.00
2014-9-6,74.4,66.5,60.1,69.1,63.5,57.7,97,90,81,30.03,29.87,9,2,19,0.02
2014-9-7,69.9,61.0,53.3,59.1,54.1,51.0,97,80,55,30.25,30.03,6,2,14,0.00
2014-9-8,73.0,61.0,47.9,58.2,52.8,46.0,94,76,52,30.35,30.25,10,3,19,0.00
2014-9-9,68.1,62.0,54.3,61.5,57.4,52.4,95,85,76,30.30,30.13,8,4,15,0.00
2014-9-10,70.9,64.0,59.4,63.8,60.0,57.1,93,87,77,30.15,29.93,10,5,19,0.00
2014-9-11,72.2,63.1,54.9,68.1,59.7,52.2,97,88,80,30.09,29.73,11,6,22,0.53
2014-9-12,54.8,50.8,45.7,52.5,47.8,43.2,96,89,81,30.30,30.08,6,3,13,0.04
2014-9-13,58.5,48.3,42.3,57.7,47.3,41.2,98,96,92,30.27,30.11,11,3,16,0.56
2014-9-16,63.9,56.3,48.3,54.5,50.8,45.1,99,83,62,30.08,30.04,7,2,14,0.40
2014-9-17,65.4,54.1,44.2,51.6,46.7,42.3,95,78,50,30.10,30.01,5,1,11,0.00
2014-9-18,63.8,53.5,44.9,55.7,49.4,42.4,98,86,73,30.24,30.01,7,2,13,0.00
2014-9-19,59.9,49.3,39.5,50.5,42.8,37.4,93,80,54,30.33,30.25,9,2,15,0.01
2014-9-20,69.6,63.4,53.5,61.9,58.4,50.0,91,84,75,30.26,29.97,12,9,25,0.00
2014-9-21,76.2,66.5,57.4,66.9,61.4,52.9,97,84,72,29.76,29.57,11,6,23,0.56
2014-9-22,57.3,50.4,45.4,53.5,46.6,41.9,97,87,70,30.25,29.67,10,5,21,0.12
2014-9-23,67.9,54.2,42.4,54.0,48.0,40.9,96,81,58,30.46,30.25,4,1,11,0.00
2014-9-24,71.6,59.6,49.9,58.4,53.1,48.2,95,80,59,30.60,30.46,7,2,14,0.00
2014-9-25,67.5,57.9,50.0,55.6,52.1,48.4,96,82,64,30.50,30.32,3,0,9,0.00
2014-9-26,71.1,60.2,49.3,58.8,54.6,48.2,100,83,61,30.36,30.27,6,2,15,0.01
2014-9-27,76.6,63.5,52.0,62.8,57.1,50.4,96,81,51,30.32,30.23,4,1,10,0.01
2014-9-28,78.9,65.3,54.1,62.5,57.7,53.0,97,79,49,30.23,30.05,5,1,9,0.01
2014-9-29,76.3,69.5,59.8,61.8,58.7,56.4,92,70,55,30.05,29.90,5,1,11,0.00
2014-9-30,75.3,63.0,57.1,62.0,58.4,55.7,96,86,59,29.98,29.89,4,1,9,0.00
2014-10-1,70.1,61.6,55.7,62.9,57.9,53.6,98,88,71,30.12,29.98,3,0,6,0.00
2014-10-2,70.4,60.5,53.1,59.7,55.7,52.2,100,85,64,30.18,30.09,7,2,11,0.01
2014-10-3,64.1,59.2,54.8,57.8,55.7,53.4,95,89,79,30.09,29.68,16,8,28,0.01
2014-10-4,61.0,53.7,42.1,57.4,50.1,34.4,97,88,64,29.74,29.57,13,5,24,0.33
2014-10-5,51.4,43.3,34.7,41.6,36.7,31.6,89,77,67,29.98,29.73,7,4,14,0.00
2014-10-6,64.0,59.7,41.7,48.9,46.4,35.0,78,62,53,29.99,29.90,17,11,30,0.00
2014-10-7,65.2,59.3,55.3,53.1,49.9,46.2,87,72,52,29.96,29.75,12,8,22,0.00
2014-10-8,61.8,54.7,49.2,54.5,47.5,38.7,96,78,58,29.96,29.68,13,6,24,0.23
2014-10-9,50.1,46.6,43.3,42.8,39.2,36.7,80,75,69,30.01,29.92,9,4,19,0.00
2014-10-10,57.3,48.7,39.8,42.9,40.3,36.5,89,74,54,30.18,30.11,5,2,14,0.00
2014-10-11,54.5,47.0,40.0,45.4,41.6,36.7,91,82,62,30.26,30.11,7,2,14,0.00
2014-10-12,59.4,46.8,36.5,42.8,38.2,35.1,96,74,46,30.36,30.26,9,1,12,0.00
2014-10-13,61.7,55.5,48.4,56.9,50.5,38.7,95,84,68,30.28,30.18,13,8,23,0.01
2014-10-14,73.9,68.0,58.4,64.3,61.9,57.0,95,81,68,30.18,29.94,17,11,27,0.00
2014-10-15,68.8,65.1,60.7,65.1,62.8,59.8,98,93,84,29.95,29.78,16,6,28,0.96
2014-10-16,69.5,62.2,54.0,62.8,57.2,51.4,99,85,56,29.79,29.62,9,3,15,0.67
2014-10-17,63.6,56.4,51.5,53.2,50.6,49.3,94,82,64,29.69,29.60,12,4,22,0.01
2014-10-18,54.0,48.6,42.4,51.1,46.0,41.0,96,91,77,29.84,29.61,10,6,20,0.49
2014-10-19,42.2,37.9,33.5,40.9,33.7,29.4,96,85,70,30.13,29.85,10,5,19,0.11
2014-10-20,50.5,43.2,33.0,42.7,37.0,29.4,89,79,69,30.11,29.94,8,3,14,0.00
2014-10-21,53.6,49.6,46.0,50.2,46.2,41.6,96,88,77,30.04,29.88,5,1,8,0.05
2014-10-22,49.4,47.1,44.2,48.6,45.6,42.3,98,94,91,30.17,30.04,10,5,16,0.00
2014-10-23,49.0,46.5,42.2,46.2,43.7,40.3,96,90,84,30.08,29.97,12,8,25,0.01
2014-10-24,58.0,49.1,44.3,46.4,43.8,37.4,100,83,60,30.00,29.93,11,6,21,0.00
2014-10-25,62.8,52.2,43.2,51.7,45.2,37.7,90,78,57,29.96,29.58,10,3,17,0.00
2014-10-26,52.0,46.5,44.6,45.0,41.9,39.1,94,84,74,29.92,29.61,12,5,24,0.07
2014-10-27,58.4,48.0,41.6,43.3,40.2,38.5,91,76,52,30.11,29.92,7,2,14,0.00
2014-10-28,74.2,62.4,53.0,59.9,49.9,38.4,95,64,55,29.99,29.82,11,5,24,0.04
2014-10-29,60.9,51.8,44.9,59.6,46.9,41.8,96,83,72,29.99,29.84,9,4,16,0.00
2014-10-30,45.1,42.6,36.8,42.1,38.0,33.5,93,84,72,30.10,29.98,7,2,13,0.00
2014-10-31,47.7,41.1,34.6,39.7,35.7,32.5,94,82,64,30.09,29.98,5,1,8,0.00
2014-11-1,42.1,39.3,36.5,37.5,35.7,32.7,93,87,77,30.08,29.98,10,5,15,0.03
2014-11-2,38.1,35.5,33.8,29.2,27.5,26.1,78,73,65,30.22,30.15,15,9,27,0.00
2014-11-3,56.0,46.6,35.4,31.5,27.2,21.5,79,50,30,30.25,30.14,9,5,22,0.00
2014-11-4,62.5,55.9,47.4,40.4,32.3,25.1,63,41,29,30.16,29.94,10,5,20,0.02
2014-11-5,59.9,51.2,41.3,49.3,38.8,29.6,89,64,32,30.16,29.93,12,5,23,0.02
2014-11-6,48.2,42.2,38.8,42.4,39.5,35.7,97,90,70,30.14,29.71,6,2,10,0.45
2014-11-7,39.6,34.4,31.4,38.7,33.1,28.6,100,95,88,30.02,29.72,11,6,23,0.26
2014-11-8,41.4,36.2,29.7,33.2,29.6,25.6,89,77,64,30.05,29.85,12,6,20,0.09
2014-11-9,44.3,40.7,38.1,37.5,34.3,31.3,92,78,66,30.02,29.86,8,4,14,0.01
2014-11-10,56.8,48.3,40.4,39.7,36.1,32.4,77,63,51,30.16,30.02,14,5,22,0.00
2014-11-11,61.7,52.5,44.8,51.4,43.1,37.4,91,71,52,30.06,29.85,14,10,22,0.00
2014-11-12,55.9,43.8,34.7,52.6,37.7,27.9,94,79,65,30.17,29.81,12,6,20,0.03
2014-11-13,35.2,32.4,28.2,30.7,27.9,25.8,96,84,75,30.18,30.07,8,2,12,0.00
2014-11-14,33.8,28.2,23.0,26.9,23.6,20.2,95,83,68,30.26,30.08,9,4,21,0.05
2014-11-15,36.4,29.7,24.3,26.0,23.4,20.7,93,78,57,30.42,30.26,6,3,17,0.01
2014-11-16,35.5,32.4,28.6,28.7,24.7,21.1,79,73,65,30.36,30.05,10,5,18,0.00
2014-11-17,36.6,33.8,29.6,36.1,32.4,24.2,98,95,71,30.06,29.54,11,6,19,0.80
2014-11-18,29.4,20.2,16.2,23.4,10.6,6.7,86,66,54,30.08,29.67,17,11,32,0.00
2014-11-19,25.7,20.2,12.9,17.6,11.1,7.3,88,68,53,30.28,29.95,13,7,24,0.00
2014-11-20,29.0,25.8,19.4,23.2,19.7,15.6,94,78,60,30.07,29.90,13,6,24,0.00
2014-11-21,25.6,20.9,17.9,20.8,16.2,13.0,93,82,70,30.54,30.06,9,5,17,0.01
2014-11-22,40.9,30.7,18.7,38.8,22.3,11.9,93,72,44,30.51,30.15,9,6,20,0.05
2014-11-23,50.1,45.7,40.9,41.4,38.7,34.4,93,77,59,30.18,29.87,18,6,30,0.02
2014-11-24,66.5,58.1,47.2,57.2,51.0,38.2,97,79,47,29.86,29.41,18,11,32,0.27
2014-11-25,54.6,43.1,33.8,38.7,31.1,26.9,89,63,50,30.25,29.69,15,8,26,0.00
2014-11-26,33.7,31.4,26.5,30.8,27.9,25.3,95,87,76,30.27,30.02,6,3,11,0.00
2014-11-27,28.4,26.9,25.3,27.5,25.6,24.0,100,95,93,30.15,30.03,6,3,12,0.00
2014-11-28,26.2,23.0,17.5,25.0,18.8,13.0,95,84,70,30.32,30.14,9,3,24,0.00
2014-11-29,32.4,24.5,18.1,27.2,19.7,13.7,85,82,79,30.33,30.10,14,8,28,0.00
2014-11-30,51.9,42.1,32.5,47.1,37.3,27.3,87,83,80,30.11,30.00,14,8,23,0.15
2014-12-1,53.6,38.4,26.9,48.7,34.4,19.8,97,85,73,30.61,30.00,11,6,25,0.02
2014-12-2,36.0,28.2,21.1,34.2,23.4,16.1,100,82,65,30.69,30.26,24,9,36,0.00
2014-12-3,40.8,38.6,36.0,38.8,36.7,29.8,97,93,78,30.25,29.99,18,8,28,0.04
2014-12-4,34.1,29.1,23.1,27.6,21.9,19.7,91,75,62,30.58,30.23,7,3,20,0.00
2014-12-5,34.5,27.1,22.5,30.5,23.1,19.8,92,85,77,30.60,30.43,11,5,20,0.00
2014-12-6,37.9,34.9,30.5,37.4,33.8,26.8,98,96,86,30.49,30.23,12,4,22,0.77
2014-12-7,30.7,25.6,19.6,27.3,18.5,13.4,92,75,56,30.75,30.49,9,5,17,0.00
2014-12-8,29.7,24.5,19.2,26.9,18.0,10.4,90,77,49,30.71,30.37,17,9,27,0.00
2014-12-9,37.2,33.1,30.0,35.6,31.6,27.3,98,94,89,30.37,29.99,17,5,25,0.06
2014-12-10,32.7,28.5,26.6,31.9,27.9,25.9,100,97,97,29.99,29.72,14,9,24,0.01
2014-12-11,27.4,24.4,22.8,26.7,23.4,21.6,97,96,95,29.97,29.70,7,4,18,0.00
2014-12-12,28.7,26.1,22.2,28.4,25.2,21.0,100,96,95,30.15,29.97,8,5,14,0.00
2014-12-13,32.4,30.3,27.5,32.2,29.9,26.8,100,98,97,30.14,30.01,7,3,15,0.00
2014-12-14,35.2,33.3,30.5,34.9,33.0,30.0,99,99,98,30.11,29.98,7,4,15,0.07
2014-12-15,34.8,33.5,31.7,34.5,33.2,31.5,100,99,98,30.18,30.09,8,2,13,0.02
2014-12-16,40.3,37.3,31.6,39.8,36.8,31.4,100,98,94,30.09,29.87,13,8,21,0.02
2014-12-17,40.2,37.1,31.1,39.9,36.2,29.3,99,97,92,29.98,29.86,11,3,17,0.15
2014-12-18,31.0,29.4,27.8,29.3,28.0,26.1,97,94,88,30.11,29.98,9,6,21,0.00
2014-12-19,27.8,24.4,22.6,27.1,23.1,21.4,97,95,92,30.32,30.07,8,5,16,0.00
2014-12-20,27.8,26.4,25.6,25.6,24.4,23.4,95,92,87,30.37,30.28,5,2,8,0.00
2014-12-21,30.6,27.4,25.1,26.8,23.9,22.8,92,87,81,30.42,30.34,4,1,7,0.03
2014-12-22,35.9,31.7,26.7,35.0,28.7,23.6,97,88,80,30.40,30.18,13,8,20,0.02
2014-12-23,43.8,40.4,35.9,43.0,39.6,35.1,98,97,96,30.18,30.03,16,9,22,0.09
2014-12-24,55.4,48.0,43.7,54.0,47.4,42.9,99,98,95,30.03,29.38,23,12,31,0.12
2014-12-25,56.1,41.8,37.3,54.7,36.6,32.2,96,82,72,30.17,29.38,19,10,32,0.09
2014-12-26,44.5,38.6,36.2,33.3,31.3,30.4,82,75,62,30.32,30.17,7,2,17,0.00
2014-12-27,51.2,43.7,36.8,41.0,36.6,30.5,86,76,67,30.29,29.97,10,3,19,0.00
2014-12-28,48.9,36.5,30.9,42.4,32.0,26.4,93,84,65,30.15,29.90,8,4,17,0.44
2014-12-29,31.8,27.1,23.0,27.2,23.5,18.7,92,86,79,30.35,30.14,6,2,18,0.00
2014-12-30,24.5,20.2,17.9,21.8,16.3,12.8,93,85,76,30.51,30.34,7,2,13,0.00
2014-12-31,20.7,18.3,16.0,17.5,10.1,7.2,92,70,58,30.42,30.11,12,6,24,0.00
2015-1-1,32.1,25.3,18.6,19.3,12.5,8.2,72,59,44,30.11,29.92,11,8,24,0.00
2015-1-2,32.0,28.8,25.7,25.3,22.6,19.2,89,78,61,30.50,30.03,13,5,24,0.00